createdAt,value
2023-02-17T00:01:34.273Z,101104.09
2023-02-17T00:04:52.635Z,101101.44
2023-02-17T00:08:12.539Z,101089.28
2023-02-17T00:11:07.248Z,101089.97
2023-02-17T00:14:37.905Z,101085.38
2023-02-17T00:20:45.277Z,101066.84
2023-02-17T00:23:28.661Z,101054.50
2023-02-17T00:26:28.603Z,101054.34
2023-02-17T00:29:10.330Z,101052.44
2023-02-17T00:32:19.612Z,101049.69
2023-02-17T00:38:11.785Z,101050.44
2023-02-17T00:40:58.636Z,101048.63
2023-02-17T00:43:50.359Z,101049.50
2023-02-17T00:53:54.845Z,101040.56
2023-02-17T00:57:20.886Z,101029.16
2023-02-17T01:03:25.369Z,101015.19
2023-02-17T01:06:44.452Z,101016.06
2023-02-17T01:10:10.319Z,101006.50
2023-02-17T01:13:10.564Z,100993.47
2023-02-17T01:16:11.887Z,101000.38
2023-02-17T01:19:04.465Z,100989.16
2023-02-17T01:21:55.871Z,101004.81
2023-02-17T01:24:41.782Z,100996.13
2023-02-17T01:28:00.916Z,100982.28
2023-02-17T01:31:01.942Z,100980.63
2023-02-17T01:34:21.610Z,100972.84
2023-02-17T01:37:18.883Z,100972.94
2023-02-17T01:40:12.632Z,100969.47
2023-02-17T01:47:42.138Z,100953.00
2023-02-17T01:50:40.526Z,100958.28
2023-02-17T01:56:58.945Z,100960.22
2023-02-17T01:59:51.912Z,100951.50
2023-02-17T02:02:34.453Z,100951.50
2023-02-17T02:05:14.592Z,100947.03
2023-02-17T02:08:06.526Z,100945.19
2023-02-17T02:14:14.184Z,100931.03
2023-02-17T02:17:21.425Z,100927.44
2023-02-17T02:24:09.952Z,100905.56
2023-02-17T02:27:31.547Z,100901.97
2023-02-17T02:31:19.191Z,100889.75
2023-02-17T02:34:52.609Z,100884.47
2023-02-17T02:37:59.368Z,100874.88
2023-02-17T02:41:12.788Z,100867.97
2023-02-17T02:44:08.009Z,100870.47
2023-02-17T02:50:22.666Z,100872.22
2023-02-17T02:57:43.150Z,100856.56
2023-02-17T03:01:25.738Z,100853.06
2023-02-17T03:05:06.979Z,100840.88
2023-02-17T03:08:44.194Z,100843.47
2023-02-17T03:15:18.038Z,100817.41
2023-02-17T03:18:07.754Z,100813.94
2023-02-17T03:21:21.810Z,100808.69
2023-02-17T03:24:47.512Z,100803.53
2023-02-17T03:27:45.743Z,100803.63
2023-02-17T03:30:32.217Z,100802.78
2023-02-17T03:34:04.161Z,100818.41
2023-02-17T03:37:10.358Z,100819.25
2023-02-17T03:40:54.902Z,100824.50
2023-02-17T03:43:40.226Z,100824.50
2023-02-17T03:46:28.462Z,100813.25
2023-02-17T03:49:50.198Z,100805.47
2023-02-17T03:57:25.151Z,100802.00
2023-02-17T04:00:12.909Z,100801.16
2023-02-17T04:03:03.138Z,100798.56
2023-02-17T04:06:07.027Z,100797.69
2023-02-17T04:09:22.218Z,100789.88
2023-02-17T04:12:24.545Z,100786.41
2023-02-17T04:15:48.287Z,100789.88
2023-02-17T04:18:59.161Z,100783.03
2023-02-17T04:21:46.316Z,100770.06
2023-02-17T04:24:28.988Z,100789.97
2023-02-17T04:27:09.885Z,100783.94
2023-02-17T04:33:16.163Z,100771.00
2023-02-17T04:39:31.466Z,100761.47
2023-02-17T04:42:33.321Z,100758.84
2023-02-17T04:49:12.015Z,100770.06
2023-02-17T04:52:05.682Z,100767.53
2023-02-17T04:55:08.060Z,100764.97
2023-02-17T04:58:00.813Z,100760.66
2023-02-17T05:01:24.821Z,100743.34
2023-02-17T05:03:52.508Z,100740.78
2023-02-17T05:06:38.039Z,100744.25
2023-02-17T05:09:20.192Z,100744.31
2023-02-17T05:12:18.215Z,100746.94
2023-02-17T05:18:09.601Z,100731.28
2023-02-17T05:20:52.484Z,100729.50
2023-02-17T05:23:46.664Z,100729.50
2023-02-17T05:27:18.173Z,100719.16
2023-02-17T05:30:16.272Z,100722.63
2023-02-17T05:36:59.094Z,100715.72
2023-02-17T05:39:44.951Z,100716.63
2023-02-17T05:42:46.694Z,100717.50
2023-02-17T05:45:46.849Z,100717.53
2023-02-17T05:49:08.290Z,100707.16
2023-02-17T05:52:14.880Z,100713.28
2023-02-17T05:55:00.463Z,100717.69
2023-02-17T05:58:06.439Z,100711.69
2023-02-17T06:11:48.978Z,100703.22
2023-02-17T06:19:12.959Z,100683.34
2023-02-17T06:22:21.172Z,100693.78
2023-02-17T06:23:09.324Z,100698.88
2023-02-17T06:25:20.218Z,100679.06
2023-02-17T06:28:11.994Z,100673.00
2023-02-17T06:35:01.916Z,100671.41
2023-02-17T06:38:24.569Z,100672.41
2023-02-17T06:41:22.022Z,100681.22
2023-02-17T06:44:47.789Z,100680.41
2023-02-17T06:47:58.014Z,100664.00
2023-02-17T06:51:07.859Z,100671.88
2023-02-17T06:54:19.519Z,100670.22
2023-02-17T07:00:18.404Z,100671.47
2023-02-17T07:03:13.169Z,100669.78
2023-02-17T07:06:25.963Z,100663.78
2023-02-17T07:09:34.405Z,100650.00
2023-02-17T07:19:23.702Z,100653.72
2023-02-17T07:22:36.714Z,100643.44
2023-02-17T07:25:21.014Z,100643.50
2023-02-17T07:32:16.243Z,100642.81
2023-02-17T07:35:25.786Z,100636.88
2023-02-17T07:38:47.668Z,100632.69
2023-02-17T07:41:36.153Z,100637.13
2023-02-17T07:44:35.731Z,100632.94
2023-02-17T07:47:26.333Z,100623.44
2023-02-17T07:57:15.702Z,100612.41
2023-02-17T08:00:14.954Z,100613.47
2023-02-17T08:03:07.262Z,100610.91
2023-02-17T08:05:43.807Z,100617.97
2023-02-17T08:08:53.088Z,100608.44
2023-02-17T08:11:45.017Z,100613.69
2023-02-17T08:14:28.488Z,100613.72
2023-02-17T08:17:27.371Z,100605.91
2023-02-17T08:20:25.693Z,100618.06
2023-02-17T08:23:18.837Z,100612.06
2023-02-17T08:34:36.231Z,100593.94
2023-02-17T08:37:50.482Z,100608.69
2023-02-17T08:40:29.287Z,100600.91
2023-02-17T08:43:23.300Z,100600.88
2023-02-17T08:46:05.951Z,100602.59
2023-02-17T08:52:04.824Z,100593.03
2023-02-17T08:55:09.506Z,100586.94
2023-02-17T08:58:30.778Z,100582.59
2023-02-17T09:01:56.127Z,100585.22
2023-02-17T09:05:15.501Z,100561.75
2023-02-17T09:11:54.117Z,100547.91
2023-02-17T09:18:17.259Z,100534.81
2023-02-17T09:21:24.393Z,100538.28
2023-02-17T09:27:43.829Z,100512.25
2023-02-17T09:30:46.389Z,100518.34
2023-02-17T09:36:57.205Z,100510.53
2023-02-17T09:39:34.747Z,100497.50
2023-02-17T09:42:26.680Z,100495.75
2023-02-17T09:45:18.896Z,100490.56
2023-02-17T09:48:30.093Z,100488.81
2023-02-17T09:51:32.400Z,100486.22
2023-02-17T09:54:35.444Z,100474.03
2023-02-17T09:57:51.671Z,100486.22
2023-02-17T10:01:13.760Z,100482.72
2023-02-17T10:04:22.167Z,100468.78
2023-02-17T10:07:30.991Z,100453.19
2023-02-17T10:10:39.688Z,100457.56
2023-02-17T10:13:59.130Z,100455.78
2023-02-17T10:17:19.707Z,100446.19
2023-02-17T10:28:29.584Z,100431.53
2023-02-17T10:31:40.037Z,100420.28
2023-02-17T10:39:00.853Z,100401.16
2023-02-17T10:42:19.441Z,100398.66
2023-02-17T10:52:50.236Z,100384.91
2023-02-17T10:59:56.849Z,100381.50
2023-02-17T11:03:23.641Z,100383.28
2023-02-17T11:06:51.534Z,100361.56
2023-02-17T11:10:17.464Z,100344.22
2023-02-17T11:13:09.336Z,100326.00
2023-02-17T11:16:02.761Z,100319.91
2023-02-17T11:19:09.398Z,100313.88
2023-02-17T11:21:58.251Z,100306.09
2023-02-17T11:28:50.587Z,100291.31
2023-02-17T11:32:22.302Z,100287.84
2023-02-17T11:35:54.080Z,100280.03
2023-02-17T11:39:05.301Z,100273.13
2023-02-17T11:41:52.391Z,100260.06
2023-02-17T11:45:08.078Z,100251.38
2023-02-17T11:48:17.381Z,100242.69
2023-02-17T11:51:13.905Z,100226.16
2023-02-17T11:58:16.174Z,100206.16
2023-02-17T12:01:45.731Z,100187.00
2023-02-17T12:05:03.261Z,100193.97
2023-02-17T12:12:18.612Z,100185.25
2023-02-17T12:19:37.170Z,100168.72
2023-02-17T12:22:50.107Z,100173.09
2023-02-17T12:29:37.510Z,100155.63
2023-02-17T12:31:42.327Z,100185.28
2023-02-17T12:33:00.322Z,100146.03
2023-02-17T12:36:20.053Z,100128.63
2023-02-17T12:39:57.215Z,100141.66
2023-02-17T12:43:40.364Z,100131.19
2023-02-17T12:47:20.395Z,100133.78
2023-02-17T12:50:14.936Z,100111.06
2023-02-17T12:53:06.876Z,100110.16
2023-02-17T12:56:17.457Z,100109.25
2023-02-17T12:59:39.599Z,100108.34
2023-02-17T13:02:31.969Z,100119.63
2023-02-17T13:05:20.383Z,100111.78
2023-02-17T13:08:51.332Z,100129.22
2023-02-17T13:11:41.321Z,100125.75
2023-02-17T13:14:59.410Z,100111.78
2023-02-17T13:18:39.210Z,100100.44
2023-02-17T13:21:34.218Z,100096.97
2023-02-17T13:24:40.631Z,100108.28
2023-02-17T13:27:40.916Z,100104.78
2023-02-17T13:30:58.972Z,100094.31
2023-02-17T13:34:36.828Z,100089.00
2023-02-17T13:37:47.789Z,100089.84
2023-02-17T13:43:32.469Z,100083.66
2023-02-17T13:50:05.221Z,100060.94
2023-02-17T13:53:00.163Z,100070.50
2023-02-17T13:55:55.393Z,100060.91
2023-02-17T13:58:42.358Z,100075.69
2023-02-17T14:04:58.163Z,100081.81
2023-02-17T14:10:08.639Z,100080.94
2023-02-17T14:13:56.355Z,100080.94
2023-02-17T14:17:11.639Z,100094.03
2023-02-17T14:20:02.508Z,100068.69
2023-02-17T14:23:04.299Z,100095.75
2023-02-17T14:25:57.845Z,100095.75
2023-02-17T14:28:56.629Z,100093.94
2023-02-17T14:32:07.266Z,100088.72
2023-02-17T14:34:48.098Z,100082.59
2023-02-17T14:37:40.882Z,100097.50
2023-02-17T14:44:09.887Z,100095.75
2023-02-17T14:48:27.594Z,100105.34
2023-02-17T14:49:50.805Z,100092.25
2023-02-17T14:59:15.402Z,100103.09
2023-02-17T15:02:00.608Z,100097.94
2023-02-17T15:08:11.778Z,100108.53
2023-02-17T15:11:00.535Z,100108.53
2023-02-17T15:13:54.771Z,100107.69
2023-02-17T15:16:21.794Z,100109.41
2023-02-17T15:18:50.864Z,100097.25
2023-02-17T15:21:35.466Z,100095.50
2023-02-17T15:24:03.753Z,100100.72
2023-02-17T15:26:32.577Z,100090.28
2023-02-17T15:28:59.972Z,100104.22
2023-02-17T15:31:29.900Z,100092.00
2023-02-17T15:33:59.690Z,100098.13
2023-02-17T15:36:28.860Z,100083.31
2023-02-17T15:38:55.911Z,100093.78
2023-02-17T15:41:29.975Z,100093.78
2023-02-17T15:43:58.577Z,100092.03
2023-02-17T15:46:31.598Z,100088.56
2023-02-17T15:48:59.476Z,100075.50
2023-02-17T15:51:26.397Z,100069.38
2023-02-17T15:53:54.318Z,100058.94
2023-02-17T15:56:30.517Z,100065.91
2023-02-17T15:59:00.700Z,100074.63
2023-02-17T16:01:32.741Z,100072.00
2023-02-17T16:04:00.139Z,100072.88
2023-02-17T16:06:28.787Z,100067.66
2023-02-17T16:08:58.780Z,100048.47
2023-02-17T16:11:26.757Z,100056.31
2023-02-17T16:13:55.152Z,100056.31
2023-02-17T16:16:32.320Z,100061.50
2023-02-17T16:19:01.082Z,100063.25
2023-02-17T16:21:28.327Z,100078.06
2023-02-17T16:23:59.781Z,100088.53
2023-02-17T16:26:34.575Z,100071.09
2023-02-17T16:29:17.151Z,100088.53
2023-02-17T16:31:44.790Z,100085.03
2023-02-17T16:34:22.559Z,100105.97
2023-02-17T16:36:53.010Z,100083.31
2023-02-17T16:39:21.532Z,100122.53
2023-02-17T16:41:49.498Z,100109.44
2023-02-17T16:44:20.401Z,100105.06
2023-02-17T16:46:59.457Z,100100.72
2023-02-17T16:49:34.184Z,100112.94
2023-02-17T16:52:07.322Z,100097.25
2023-02-17T16:54:35.757Z,100116.41
2023-02-17T16:57:02.898Z,100114.63
2023-02-17T16:59:29.863Z,100105.06
2023-02-17T17:01:56.850Z,100100.69
2023-02-17T17:04:24.506Z,100094.59
2023-02-17T17:06:52.596Z,100112.91
2023-02-17T17:09:25.431Z,100101.56
2023-02-17T17:11:52.304Z,100102.44
2023-02-17T17:14:21.523Z,100092.84
2023-02-17T17:16:57.049Z,100116.41
2023-02-17T17:19:24.267Z,100116.41
2023-02-17T17:21:51.202Z,100121.66
2023-02-17T17:24:18.149Z,100098.13
2023-02-17T17:26:47.977Z,100087.66
2023-02-17T17:29:17.828Z,100103.34
2023-02-17T17:31:45.290Z,100096.38
2023-02-17T17:34:12.340Z,100102.44
2023-02-17T17:36:43.400Z,100088.50
2023-02-17T17:39:20.474Z,100099.81
2023-02-17T17:41:48.313Z,100103.34
2023-02-17T17:44:15.541Z,100099.84
2023-02-17T17:46:42.721Z,100118.16
2023-02-17T17:49:13.382Z,100113.78
2023-02-17T17:51:40.959Z,100136.44
2023-02-17T17:54:08.283Z,100121.63
2023-02-17T17:56:39.341Z,100123.34
2023-02-17T17:59:06.730Z,100139.91
2023-02-17T18:01:34.062Z,100146.03
2023-02-17T18:04:02.156Z,100152.09
2023-02-17T18:06:40.970Z,100142.50
2023-02-17T18:09:25.852Z,100150.34
2023-02-17T18:11:59.668Z,100152.03
2023-02-17T18:14:26.671Z,100142.44
2023-02-17T18:16:53.624Z,100157.31
2023-02-17T18:19:20.922Z,100211.44
2023-02-17T18:21:47.988Z,100185.28
2023-02-17T18:24:14.963Z,100194.84
2023-02-17T18:26:41.967Z,100216.63
2023-02-17T18:29:08.964Z,100223.59
2023-02-17T18:31:35.973Z,100212.25
2023-02-17T18:34:03.416Z,100217.44
2023-02-17T18:36:30.426Z,100241.81
2023-02-17T18:38:57.402Z,100252.25
2023-02-17T18:41:30.896Z,100260.91
2023-02-17T18:44:00.889Z,100243.50
2023-02-17T18:46:28.574Z,100266.09
2023-02-17T18:48:56.252Z,100264.31
2023-02-17T18:51:25.820Z,100239.91
2023-02-17T18:53:54.751Z,100254.66
2023-02-17T18:56:25.117Z,100262.44
2023-02-17T18:58:55.338Z,100290.25
2023-02-17T19:01:35.927Z,100283.31
2023-02-17T19:04:04.814Z,100285.91
2023-02-17T19:06:34.779Z,100301.53
2023-02-17T19:09:04.331Z,100305.91
2023-02-17T19:11:32.420Z,100302.41
2023-02-17T19:14:02.348Z,100291.97
2023-02-17T19:16:31.975Z,100298.94
2023-02-17T19:18:59.883Z,100303.28
2023-02-17T19:21:27.452Z,100315.41
2023-02-17T19:23:54.790Z,100317.97
2023-02-17T19:26:22.082Z,100332.75
2023-02-17T19:28:49.455Z,100310.94
2023-02-17T19:31:19.506Z,100325.66
2023-02-17T19:33:47.051Z,100327.34
2023-02-17T19:36:18.602Z,100343.84
2023-02-17T19:38:46.873Z,100349.00
2023-02-17T19:41:15.349Z,100353.28
2023-02-17T19:43:43.540Z,100355.81
2023-02-17T19:46:20.949Z,100366.22
2023-02-17T19:48:47.961Z,100365.28
2023-02-17T19:51:15.004Z,100377.41
2023-02-17T19:53:45.742Z,100375.63
2023-02-17T19:56:23.137Z,100396.41
2023-02-17T19:58:51.145Z,100384.22
2023-02-17T20:01:25.518Z,100374.63
2023-02-17T20:03:54.625Z,100382.34
2023-02-17T20:06:26.263Z,100390.94
2023-02-17T20:09:03.795Z,100394.41
2023-02-17T20:11:32.264Z,100390.84
2023-02-17T20:14:01.564Z,100402.06
2023-02-17T20:16:29.648Z,100403.75
2023-02-17T20:18:56.879Z,100402.81
2023-02-17T20:21:28.161Z,100401.06
2023-02-17T20:23:55.749Z,100401.94
2023-02-17T20:26:27.321Z,100421.81
2023-02-17T20:28:54.740Z,100406.13
2023-02-17T20:31:22.856Z,100413.06
2023-02-17T20:33:50.367Z,100406.06
2023-02-17T20:36:18.388Z,100417.28
2023-02-17T20:38:45.672Z,100419.88
2023-02-17T20:41:17.646Z,100439.81
2023-02-17T20:43:45.051Z,100420.66
2023-02-17T20:46:24.604Z,100444.94
2023-02-17T20:48:52.868Z,100444.91
2023-02-17T20:51:20.211Z,100441.34
2023-02-17T20:53:47.192Z,100458.69
2023-02-17T20:56:23.244Z,100449.13
2023-02-17T20:58:51.938Z,100467.28
2023-02-17T21:01:19.945Z,100482.00
2023-02-17T21:03:47.215Z,100479.38
2023-02-17T21:06:29.231Z,100480.22
2023-02-17T21:09:01.088Z,100480.19
2023-02-17T21:11:28.819Z,100480.97
2023-02-17T21:13:55.968Z,100492.25
2023-02-17T21:16:31.022Z,100519.91
2023-02-17T21:19:10.695Z,100501.66
2023-02-17T21:22:06.272Z,100484.22
2023-02-17T21:25:14.128Z,100494.53
2023-02-17T21:27:42.032Z,100507.47
2023-02-17T21:30:22.097Z,100504.94
2023-02-17T21:32:55.471Z,100490.19
2023-02-17T21:35:46.857Z,100504.84
2023-02-17T21:38:30.585Z,100510.78
2023-02-17T21:41:13.404Z,100506.41
2023-02-17T21:43:59.566Z,100506.31
2023-02-17T21:46:28.198Z,100504.50
2023-02-17T21:49:00.845Z,100515.72
2023-02-17T21:51:40.001Z,100528.69
2023-02-17T21:54:28.560Z,100515.63
2023-02-17T21:57:06.952Z,100518.25
2023-02-17T21:59:54.519Z,100519.97
2023-02-17T22:02:28.460Z,100530.41
2023-02-17T22:05:03.489Z,100541.69
2023-02-17T22:07:33.704Z,100526.97
2023-02-17T22:10:05.045Z,100548.66
2023-02-17T22:12:38.921Z,100541.78
2023-02-17T22:15:23.895Z,100538.34
2023-02-17T22:17:54.065Z,100552.22
2023-02-17T22:20:25.075Z,100558.31
2023-02-17T22:22:56.850Z,100572.16
2023-02-17T22:25:36.761Z,100572.16
2023-02-17T22:28:14.504Z,100573.91
2023-02-17T22:30:42.214Z,100575.63
2023-02-17T22:33:13.679Z,100585.13
2023-02-17T22:35:59.411Z,100574.69
2023-02-17T22:38:29.925Z,100578.13
2023-02-17T22:41:17.426Z,100602.38
2023-02-17T22:43:52.902Z,100592.75
2023-02-17T22:46:39.302Z,100591.88
2023-02-17T22:49:15.336Z,100581.41
2023-02-17T22:51:56.769Z,100588.34
2023-02-17T22:54:39.124Z,100605.50
2023-02-17T22:57:13.147Z,100590.78
2023-02-17T22:59:55.327Z,100602.88
2023-02-17T23:02:39.078Z,100610.53
2023-02-17T23:05:20.622Z,100600.06
2023-02-17T23:07:52.797Z,100594.78
2023-02-17T23:10:20.915Z,100608.66
2023-02-17T23:12:51.837Z,100596.50
2023-02-17T23:15:19.552Z,100603.38
2023-02-17T23:18:05.813Z,100627.63
2023-02-17T23:20:46.721Z,100603.28
2023-02-17T23:23:29.498Z,100593.69
2023-02-17T23:26:35.109Z,100600.53
2023-02-17T23:29:16.341Z,100607.28
2023-02-17T23:31:58.408Z,100615.84
2023-02-17T23:35:15.131Z,100626.16
2023-02-17T23:37:49.988Z,100622.66
2023-02-17T23:40:26.358Z,100627.81
2023-02-17T23:50:12.545Z,100632.75
2023-02-17T23:53:11.949Z,100635.34
2023-02-17T23:56:15.923Z,100625.00
2023-02-17T23:59:13.094Z,100633.69
